createdAt,value
2017-11-08T00:01:47.202Z,31.97
2017-11-08T00:04:18.428Z,35.07
2017-11-08T00:06:46.764Z,30.43
2017-11-08T00:09:16.511Z,31.90
2017-11-08T00:11:44.080Z,32.70
2017-11-08T00:14:11.671Z,32.33
2017-11-08T00:16:39.300Z,31.77
2017-11-08T00:19:06.896Z,34.03
2017-11-08T00:21:40.221Z,38.37
2017-11-08T00:24:12.777Z,34.10
2017-11-08T00:26:40.348Z,29.77
2017-11-08T00:29:07.935Z,41.97
2017-11-08T00:31:35.508Z,38.93
2017-11-08T00:34:03.120Z,36.70
2017-11-08T00:36:30.689Z,33.85
2017-11-08T00:38:58.252Z,35.60
2017-11-08T00:41:25.843Z,33.60
2017-11-08T00:43:53.412Z,34.27
2017-11-08T00:46:21.009Z,33.66
2017-11-08T00:48:49.340Z,35.77
2017-11-08T00:51:16.942Z,31.50
2017-11-08T00:53:45.285Z,33.63
2017-11-08T00:56:14.073Z,29.80
2017-11-08T00:58:41.668Z,31.50
2017-11-08T01:01:10.029Z,27.10
2017-11-08T01:03:37.624Z,27.07
2017-11-08T01:06:05.197Z,31.77
2017-11-08T01:08:32.788Z,28.70
2017-11-08T01:11:00.360Z,31.03
2017-11-08T01:13:27.956Z,30.40
2017-11-08T01:15:56.284Z,32.20
2017-11-08T01:18:23.876Z,31.70
2017-11-08T01:20:52.947Z,32.30
2017-11-08T01:23:20.541Z,31.83
2017-11-08T01:25:48.886Z,30.77
2017-11-08T01:28:17.288Z,32.10
2017-11-08T01:30:46.369Z,31.83
2017-11-08T01:33:15.511Z,29.20
2017-11-08T01:35:43.148Z,28.65
2017-11-08T01:38:12.546Z,24.13
2017-11-08T01:40:44.142Z,27.33
2017-11-08T01:43:11.716Z,32.10
2017-11-08T01:45:42.499Z,30.03
2017-11-08T01:48:10.060Z,27.70
2017-11-08T01:50:38.413Z,32.47
2017-11-08T01:53:06.005Z,30.70
2017-11-08T01:55:33.597Z,28.83
2017-11-08T01:58:01.177Z,32.57
2017-11-08T02:00:28.784Z,34.13
2017-11-08T02:02:56.448Z,28.07
2017-11-08T02:05:24.257Z,34.92
2017-11-08T02:07:51.857Z,35.10
2017-11-08T02:10:19.712Z,31.37
2017-11-08T02:12:47.413Z,30.67
2017-11-08T02:15:16.078Z,28.07
2017-11-08T02:17:49.781Z,30.75
2017-11-08T02:20:17.593Z,30.43
2017-11-08T02:22:45.181Z,25.97
2017-11-08T02:25:13.992Z,28.42
2017-11-08T02:27:41.621Z,31.10
2017-11-08T02:30:09.196Z,28.70
2017-11-08T02:32:36.801Z,29.90
2017-11-08T02:35:04.453Z,26.03
2017-11-08T02:37:32.428Z,21.40
2017-11-08T02:40:00.024Z,30.57
2017-11-08T02:42:27.596Z,31.05
2017-11-08T02:44:55.190Z,31.33
2017-11-08T02:47:22.765Z,26.80
2017-11-08T02:49:50.360Z,31.37
2017-11-08T02:52:17.939Z,37.50
2017-11-08T02:54:45.536Z,34.63
2017-11-08T02:57:15.444Z,30.77
2017-11-08T02:59:43.133Z,32.73
2017-11-08T03:02:11.488Z,25.67
2017-11-08T03:04:44.750Z,35.23
2017-11-08T03:07:12.326Z,33.47
2017-11-08T03:09:40.080Z,33.63
2017-11-08T03:12:07.649Z,32.40
2017-11-08T03:14:35.221Z,36.77
2017-11-08T03:17:02.924Z,34.93
2017-11-08T03:19:31.260Z,29.90
2017-11-08T03:21:58.951Z,35.00
2017-11-08T03:24:26.520Z,33.63
2017-11-08T03:26:54.117Z,33.15
2017-11-08T03:29:21.684Z,34.00
2017-11-08T03:31:49.503Z,26.50
2017-11-08T03:34:17.840Z,29.80
2017-11-08T03:36:45.410Z,27.03
2017-11-08T03:39:14.332Z,27.67
2017-11-08T03:41:41.900Z,30.07
2017-11-08T03:44:09.850Z,28.03
2017-11-08T03:46:37.416Z,35.20
2017-11-08T03:49:05.282Z,31.70
2017-11-08T03:51:32.856Z,25.93
2017-11-08T03:54:00.448Z,30.13
2017-11-08T03:56:28.023Z,32.33
2017-11-08T03:58:55.611Z,25.10
2017-11-08T04:01:23.184Z,39.53
2017-11-08T04:03:51.724Z,37.90
2017-11-08T04:06:19.288Z,39.65
2017-11-08T04:08:46.856Z,33.20
2017-11-08T04:11:15.372Z,29.40
2017-11-08T04:13:42.945Z,34.27
2017-11-08T04:16:11.301Z,39.40
2017-11-08T04:18:38.876Z,32.87
2017-11-08T04:21:06.469Z,35.47
2017-11-08T04:23:34.809Z,39.07
2017-11-08T04:26:02.404Z,35.90
2017-11-08T04:28:30.744Z,41.10
2017-11-08T04:30:58.423Z,36.80
2017-11-08T04:33:25.988Z,35.55
2017-11-08T04:35:53.576Z,37.03
2017-11-08T04:38:21.912Z,37.80
2017-11-08T04:40:49.903Z,37.40
2017-11-08T04:43:18.232Z,31.87
2017-11-08T04:45:45.797Z,41.70
2017-11-08T04:48:14.732Z,36.40
2017-11-08T04:50:42.306Z,38.43
2017-11-08T04:53:10.672Z,39.10
2017-11-08T04:55:38.249Z,38.93
2017-11-08T04:58:06.608Z,45.07
2017-11-08T05:00:34.181Z,42.67
2017-11-08T05:03:01.780Z,35.17
2017-11-08T05:05:29.348Z,38.27
2017-11-08T05:07:56.948Z,41.00
2017-11-08T05:10:24.520Z,39.95
2017-11-08T05:12:52.280Z,39.83
2017-11-08T05:15:19.945Z,41.08
2017-11-08T05:17:47.516Z,38.97
2017-11-08T05:20:17.419Z,38.60
2017-11-08T05:22:44.990Z,38.80
2017-11-08T05:25:15.103Z,39.95
2017-11-08T05:27:42.668Z,41.20
2017-11-08T05:30:10.264Z,43.00
2017-11-08T05:32:37.841Z,36.57
2017-11-08T05:35:05.435Z,44.57
2017-11-08T05:37:32.996Z,40.10
2017-11-08T05:40:00.604Z,40.58
2017-11-08T05:42:28.171Z,37.87
2017-11-08T05:44:55.765Z,37.37
2017-11-08T05:47:23.336Z,38.20
2017-11-08T05:49:51.248Z,42.30
2017-11-08T05:52:18.817Z,41.20
2017-11-08T05:54:46.387Z,41.00
2017-11-08T05:57:15.532Z,41.10
2017-11-08T05:59:43.881Z,40.83
2017-11-08T06:02:11.580Z,41.70
2017-11-08T06:04:39.236Z,37.87
2017-11-08T06:07:06.828Z,35.03
2017-11-08T06:09:35.161Z,38.47
2017-11-08T06:12:02.845Z,39.60
2017-11-08T06:14:30.688Z,37.17
2017-11-08T06:16:58.467Z,38.33
2017-11-08T06:19:26.029Z,32.77
2017-11-08T06:21:53.600Z,40.60
2017-11-08T06:24:21.961Z,36.87
2017-11-08T06:26:49.534Z,37.55
2017-11-08T06:29:17.912Z,36.80
2017-11-08T06:31:45.577Z,36.47
2017-11-08T06:34:14.099Z,35.37
2017-11-08T06:36:41.664Z,37.93
2017-11-08T06:39:09.285Z,36.27
2017-11-08T06:41:36.856Z,37.03
2017-11-08T06:44:05.225Z,38.13
2017-11-08T06:46:32.804Z,38.15
2017-11-08T06:49:01.165Z,37.10
2017-11-08T06:51:28.737Z,37.95
2017-11-08T06:53:57.092Z,36.73
2017-11-08T06:56:24.666Z,40.03
2017-11-08T06:58:52.325Z,38.40
2017-11-08T07:01:19.892Z,39.93
2017-11-08T07:03:47.461Z,36.13
2017-11-08T07:06:17.488Z,37.23
2017-11-08T07:08:46.140Z,38.10
2017-11-08T07:11:15.437Z,37.13
2017-11-08T07:13:42.999Z,36.67
2017-11-08T07:16:10.591Z,40.73
2017-11-08T07:18:38.924Z,37.77
2017-11-08T07:21:06.519Z,37.27
2017-11-08T07:23:34.093Z,37.43
2017-11-08T07:26:02.448Z,35.10
2017-11-08T07:28:30.024Z,36.88
2017-11-08T07:30:58.393Z,35.97
2017-11-08T07:33:25.956Z,37.72
2017-11-08T07:35:53.548Z,36.70
2017-11-08T07:38:21.516Z,35.75
2017-11-08T07:40:49.455Z,33.87
2017-11-08T07:43:17.260Z,36.53
2017-11-08T07:45:44.885Z,35.67
2017-11-08T07:48:12.480Z,37.13
2017-11-08T07:50:40.060Z,36.23
2017-11-08T07:53:07.660Z,39.37
2017-11-08T07:55:40.977Z,35.33
2017-11-08T07:58:09.337Z,35.43
2017-11-08T08:00:36.912Z,36.37
2017-11-08T08:03:05.266Z,34.30
2017-11-08T08:05:32.844Z,33.53
2017-11-08T08:08:00.441Z,36.97
2017-11-08T08:10:28.008Z,37.05
2017-11-08T08:12:55.572Z,40.03
2017-11-08T08:15:23.159Z,37.33
2017-11-08T08:17:50.736Z,35.37
2017-11-08T08:20:18.332Z,39.55
2017-11-08T08:22:46.664Z,37.13
2017-11-08T08:25:16.697Z,39.28
2017-11-08T08:27:44.269Z,38.37
2017-11-08T08:30:11.860Z,39.75
2017-11-08T08:32:39.429Z,37.70
2017-11-08T08:35:07.054Z,41.47
2017-11-08T08:37:35.397Z,38.85
2017-11-08T08:40:02.965Z,38.17
2017-11-08T08:42:30.649Z,38.20
2017-11-08T08:44:58.317Z,37.50
2017-11-08T08:47:25.908Z,42.40
2017-11-08T08:49:53.492Z,36.90
2017-11-08T08:52:21.085Z,37.50
2017-11-08T08:54:48.648Z,36.53
2017-11-08T08:57:16.456Z,37.90
2017-11-08T08:59:44.025Z,36.53
2017-11-08T09:02:18.198Z,43.10
2017-11-08T09:04:45.860Z,37.78
2017-11-08T09:07:15.336Z,39.80
2017-11-08T09:09:42.933Z,40.70
2017-11-08T09:12:11.275Z,34.43
2017-11-08T09:14:38.869Z,35.07
2017-11-08T09:17:07.217Z,38.50
2017-11-08T09:19:34.804Z,36.80
2017-11-08T09:22:02.384Z,39.53
2017-11-08T09:24:31.536Z,46.00
2017-11-08T09:27:14.547Z,38.97
2017-11-08T09:29:42.160Z,35.87
2017-11-08T09:32:10.524Z,39.60
2017-11-08T09:34:43.895Z,35.90
2017-11-08T09:37:11.456Z,38.30
2017-11-08T09:39:39.024Z,36.57
2017-11-08T09:42:09.473Z,37.20
2017-11-08T09:44:37.040Z,37.23
2017-11-08T09:47:04.660Z,41.73
2017-11-08T09:49:32.680Z,35.90
2017-11-08T09:52:01.064Z,41.10
2017-11-08T09:54:29.396Z,35.10
2017-11-08T09:56:57.028Z,37.07
2017-11-08T09:59:24.648Z,34.97
2017-11-08T10:01:52.278Z,41.20
2017-11-08T10:04:19.896Z,37.65
2017-11-08T10:06:49.093Z,38.70
2017-11-08T10:09:28.181Z,36.63
2017-11-08T10:11:55.777Z,45.20
2017-11-08T10:14:24.253Z,39.05
2017-11-08T10:16:53.591Z,42.30
2017-11-08T10:19:21.233Z,39.42
2017-11-08T10:21:49.725Z,39.73
2017-11-08T10:24:17.292Z,41.53
2017-11-08T10:26:44.912Z,37.77
2017-11-08T10:29:12.488Z,37.07
2017-11-08T10:31:40.890Z,37.40
2017-11-08T10:34:08.472Z,35.70
2017-11-08T10:36:36.045Z,38.40
2017-11-08T10:39:03.636Z,38.97
2017-11-08T10:41:31.204Z,36.80
2017-11-08T10:43:58.763Z,37.97
2017-11-08T10:46:26.390Z,37.40
2017-11-08T10:48:54.872Z,34.27
2017-11-08T10:51:23.244Z,36.13
2017-11-08T10:53:51.781Z,37.03
2017-11-08T10:56:19.361Z,37.90
2017-11-08T10:58:46.937Z,36.30
2017-11-08T11:01:21.249Z,39.30
2017-11-08T11:03:51.325Z,35.83
2017-11-08T11:06:18.897Z,39.10
2017-11-08T11:08:46.501Z,36.87
2017-11-08T11:11:16.497Z,36.75
2017-11-08T11:13:47.907Z,36.20
2017-11-08T11:16:17.361Z,37.17
2017-11-08T11:18:44.977Z,35.57
2017-11-08T11:21:12.549Z,35.30
2017-11-08T11:23:42.054Z,35.47
2017-11-08T11:26:09.654Z,36.73
2017-11-08T11:28:37.229Z,38.60
2017-11-08T11:31:04.824Z,38.37
2017-11-08T11:33:33.177Z,36.10
2017-11-08T11:36:00.775Z,36.40
2017-11-08T11:38:29.217Z,35.55
2017-11-08T11:40:56.814Z,38.30
2017-11-08T11:43:24.389Z,35.80
2017-11-08T11:45:51.976Z,33.10
2017-11-08T11:48:19.550Z,35.42
2017-11-08T11:50:47.149Z,35.80
2017-11-08T11:53:16.420Z,35.73
2017-11-08T11:55:44.018Z,33.10
2017-11-08T11:58:12.356Z,34.40
2017-11-08T12:00:39.953Z,34.27
2017-11-08T12:03:08.325Z,33.63
2017-11-08T12:05:36.725Z,32.22
2017-11-08T12:08:04.303Z,33.27
2017-11-08T12:10:32.205Z,33.63
2017-11-08T12:12:59.778Z,34.20
2017-11-08T12:15:27.394Z,35.60
2017-11-08T12:17:54.966Z,38.13
2017-11-08T12:20:22.543Z,35.33
2017-11-08T12:22:50.133Z,35.90
2017-11-08T12:25:17.834Z,38.45
2017-11-08T12:27:45.415Z,37.07
2017-11-08T12:30:18.305Z,33.80
2017-11-08T12:32:45.873Z,31.17
2017-11-08T12:35:15.585Z,34.47
2017-11-08T12:37:43.181Z,35.17
2017-11-08T12:40:11.537Z,34.17
2017-11-08T12:42:39.133Z,30.97
2017-11-08T12:45:13.131Z,32.07
2017-11-08T12:47:40.721Z,32.37
2017-11-08T12:50:08.475Z,37.23
2017-11-08T12:52:36.808Z,35.73
2017-11-08T12:55:04.372Z,36.87
2017-11-08T12:57:37.259Z,37.27
2017-11-08T13:00:04.862Z,46.03
2017-11-08T13:02:33.222Z,41.35
2017-11-08T13:05:00.886Z,37.77
2017-11-08T13:07:28.460Z,35.63
2017-11-08T13:09:56.797Z,37.10
2017-11-08T13:12:24.506Z,35.03
2017-11-08T13:14:52.862Z,33.70
2017-11-08T13:17:21.945Z,36.05
2017-11-08T13:19:49.557Z,35.70
2017-11-08T13:22:17.137Z,34.80
2017-11-08T13:24:44.725Z,35.33
2017-11-08T13:27:12.301Z,37.67
2017-11-08T13:29:39.925Z,35.50
2017-11-08T13:32:07.502Z,34.07
2017-11-08T13:34:35.093Z,35.75
2017-11-08T13:37:03.469Z,36.63
2017-11-08T13:39:31.041Z,35.97
2017-11-08T13:41:58.636Z,33.53
2017-11-08T13:44:26.211Z,35.65
2017-11-08T13:46:53.817Z,36.43
2017-11-08T13:49:21.389Z,34.83
2017-11-08T13:51:49.717Z,33.10
2017-11-08T13:54:17.314Z,36.90
2017-11-08T13:56:44.981Z,32.57
2017-11-08T13:59:14.246Z,34.30
2017-11-08T14:01:41.945Z,35.53
2017-11-08T14:04:09.525Z,35.90
2017-11-08T14:06:37.861Z,36.50
2017-11-08T14:09:05.456Z,35.50
2017-11-08T14:11:34.113Z,36.05
2017-11-08T14:14:01.705Z,38.20
2017-11-08T14:16:30.052Z,37.45
2017-11-08T14:18:57.650Z,36.03
2017-11-08T14:21:25.989Z,35.27
2017-11-08T14:23:53.582Z,35.70
2017-11-08T14:26:21.156Z,41.40
2017-11-08T14:28:49.525Z,35.30
2017-11-08T14:31:17.855Z,40.40
2017-11-08T14:33:45.450Z,39.67
2017-11-08T14:36:15.478Z,38.60
2017-11-08T14:38:43.077Z,40.67
2017-11-08T14:41:10.662Z,37.47
2017-11-08T14:43:38.233Z,39.27
2017-11-08T14:46:05.922Z,39.13
2017-11-08T14:48:33.492Z,38.40
2017-11-08T14:51:01.853Z,43.90
2017-11-08T14:53:30.221Z,37.30
2017-11-08T14:55:57.905Z,39.77
2017-11-08T14:58:25.478Z,38.83
2017-11-08T15:00:53.842Z,38.60
2017-11-08T15:03:21.410Z,39.90
2017-11-08T15:05:49.051Z,40.47
2017-11-08T15:08:16.874Z,39.45
2017-11-08T15:10:44.447Z,40.00
2017-11-08T15:13:12.036Z,38.57
2017-11-08T15:15:42.601Z,36.17
2017-11-08T15:18:10.968Z,46.08
2017-11-08T15:20:38.541Z,70.90
2017-11-08T15:23:06.897Z,68.10
2017-11-08T15:25:35.239Z,60.40
2017-11-08T15:28:02.842Z,59.73
2017-11-08T15:30:30.430Z,60.30
2017-11-08T15:32:58.033Z,43.10
2017-11-08T15:35:25.632Z,40.45
2017-11-08T15:37:54.009Z,39.47
2017-11-08T15:40:32.031Z,39.24
2017-11-08T15:43:00.602Z,42.47
2017-11-08T15:45:28.178Z,42.70
2017-11-08T15:47:56.514Z,41.20
2017-11-08T15:50:24.109Z,40.50
2017-11-08T15:52:52.445Z,42.00
2017-11-08T15:55:20.034Z,41.13
2017-11-08T15:57:47.885Z,39.73
2017-11-08T16:00:17.515Z,38.78
2017-11-08T16:02:45.094Z,39.50
2017-11-08T16:05:15.506Z,38.55
2017-11-08T16:07:43.350Z,37.97
2017-11-08T16:10:10.922Z,40.13
2017-11-08T16:12:45.332Z,36.77
2017-11-08T16:15:15.250Z,39.00
2017-11-08T16:17:42.953Z,39.30
2017-11-08T16:20:17.209Z,36.90
2017-11-08T16:22:44.813Z,42.20
2017-11-08T16:25:12.382Z,41.53
2017-11-08T16:27:40.005Z,39.10
2017-11-08T16:30:07.585Z,40.53
2017-11-08T16:32:35.250Z,39.80
2017-11-08T16:35:02.821Z,35.87
2017-11-08T16:37:30.439Z,34.00
2017-11-08T16:39:58.059Z,36.53
2017-11-08T16:42:26.617Z,34.05
2017-11-08T16:44:54.254Z,36.57
2017-11-08T16:47:21.872Z,35.60
2017-11-08T16:49:49.492Z,36.90
2017-11-08T16:52:17.061Z,38.30
2017-11-08T16:54:45.426Z,36.50
2017-11-08T16:57:15.365Z,37.25
2017-11-08T16:59:43.249Z,35.40
2017-11-08T17:02:10.841Z,37.07
2017-11-08T17:04:38.448Z,40.97
2017-11-08T17:07:06.121Z,37.87
2017-11-08T17:09:33.705Z,37.22
2017-11-08T17:12:02.069Z,36.50
2017-11-08T17:14:30.725Z,36.33
2017-11-08T17:16:58.390Z,39.07
2017-11-08T17:19:26.733Z,35.13
2017-11-08T17:21:54.356Z,38.78
2017-11-08T17:24:21.936Z,34.27
2017-11-08T17:26:50.297Z,36.87
2017-11-08T17:29:18.633Z,33.40
2017-11-08T17:31:46.341Z,36.30
2017-11-08T17:34:15.601Z,37.50
2017-11-08T17:36:43.966Z,35.20
2017-11-08T17:39:11.546Z,36.50
2017-11-08T17:41:39.237Z,34.13
2017-11-08T17:44:06.840Z,35.10
2017-11-08T17:46:34.463Z,35.55
2017-11-08T17:49:02.036Z,33.80
2017-11-08T17:51:30.369Z,33.10
2017-11-08T17:53:57.957Z,32.83
2017-11-08T17:56:25.565Z,35.30
2017-11-08T17:58:53.161Z,36.30
2017-11-08T18:01:20.749Z,34.90
2017-11-08T18:03:49.139Z,32.60
2017-11-08T18:06:17.485Z,34.93
2017-11-08T18:08:45.261Z,33.50
2017-11-08T18:11:13.773Z,36.30
2017-11-08T18:13:41.353Z,37.33
2017-11-08T18:16:08.976Z,36.50
2017-11-08T18:18:37.317Z,35.03
2017-11-08T18:21:05.014Z,41.20
2017-11-08T18:23:33.392Z,39.92
2017-11-08T18:26:01.694Z,36.57
2017-11-08T18:28:30.278Z,37.15
2017-11-08T18:30:57.872Z,40.80
2017-11-08T18:33:25.478Z,39.03
2017-11-08T18:35:53.077Z,39.63
2017-11-08T18:38:22.236Z,37.18
2017-11-08T18:40:49.968Z,38.17
2017-11-08T18:43:17.579Z,38.88
2017-11-08T18:45:45.938Z,42.80
2017-11-08T18:48:16.160Z,42.80
2017-11-08T18:50:43.773Z,41.67
2017-11-08T18:53:11.345Z,42.50
2017-11-08T18:55:38.930Z,43.27
2017-11-08T18:58:06.728Z,43.23
2017-11-08T19:00:35.138Z,44.67
2017-11-08T19:03:02.730Z,45.10
2017-11-08T19:05:30.411Z,41.72
2017-11-08T19:07:58.999Z,40.27
2017-11-08T19:10:26.630Z,40.57
2017-11-08T19:12:54.212Z,40.27
2017-11-08T19:15:21.885Z,36.60
2017-11-08T19:17:49.456Z,38.93
2017-11-08T19:20:17.837Z,36.00
2017-11-08T19:22:46.201Z,35.90
2017-11-08T19:25:14.701Z,38.13
2017-11-08T19:27:44.006Z,32.90
2017-11-08T19:30:12.573Z,35.83
2017-11-08T19:32:40.154Z,36.23
2017-11-08T19:35:08.498Z,35.13
2017-11-08T19:37:36.101Z,36.70
2017-11-08T19:40:03.676Z,35.43
2017-11-08T19:42:31.279Z,38.10
2017-11-08T19:44:58.852Z,35.35
2017-11-08T19:47:26.451Z,35.93
2017-11-08T19:49:54.017Z,36.80
2017-11-08T19:52:21.622Z,33.60
2017-11-08T19:54:49.243Z,35.13
2017-11-08T19:57:16.842Z,35.80
2017-11-08T19:59:44.425Z,35.57
2017-11-08T20:02:12.953Z,37.33
2017-11-08T20:04:40.546Z,41.77
2017-11-08T20:07:08.204Z,37.90
2017-11-08T20:09:35.834Z,37.10
2017-11-08T20:12:03.414Z,40.80
2017-11-08T20:14:31.012Z,40.57
2017-11-08T20:16:58.593Z,36.30
2017-11-08T20:19:26.976Z,36.38
2017-11-08T20:21:55.329Z,41.50
2017-11-08T20:24:22.936Z,36.30
2017-11-08T20:26:50.513Z,34.27
2017-11-08T20:29:18.148Z,33.53
2017-11-08T20:31:45.714Z,35.30
2017-11-08T20:34:15.315Z,38.17
2017-11-08T20:36:42.885Z,36.03
2017-11-08T20:39:10.501Z,36.00
2017-11-08T20:41:38.074Z,36.30
2017-11-08T20:44:06.422Z,37.60
2017-11-08T20:46:34.111Z,37.47
2017-11-08T20:49:01.682Z,36.22
2017-11-08T20:51:30.023Z,39.20
2017-11-08T20:53:57.617Z,36.80
2017-11-08T20:56:25.953Z,36.40
2017-11-08T20:58:53.557Z,36.67
2017-11-08T21:01:21.892Z,36.27
2017-11-08T21:03:49.484Z,36.70
2017-11-08T21:06:17.063Z,39.23
2017-11-08T21:08:45.429Z,37.90
2017-11-08T21:11:14.814Z,34.30
2017-11-08T21:13:42.425Z,37.43
2017-11-08T21:16:10.001Z,36.70
2017-11-08T21:18:37.614Z,35.73
2017-11-08T21:21:05.209Z,36.17
2017-11-08T21:23:32.837Z,36.50
2017-11-08T21:26:00.410Z,35.00
2017-11-08T21:28:28.776Z,35.60
2017-11-08T21:30:56.373Z,35.50
2017-11-08T21:33:24.000Z,39.00
2017-11-08T21:35:51.593Z,37.50
2017-11-08T21:38:19.169Z,35.45
2017-11-08T21:40:46.989Z,37.97
2017-11-08T21:43:16.469Z,38.08
2017-11-08T21:45:44.052Z,38.47
2017-11-08T21:48:11.653Z,39.20
2017-11-08T21:50:39.221Z,39.07
2017-11-08T21:53:06.821Z,41.63
2017-11-08T21:55:34.388Z,39.38
2017-11-08T21:58:01.986Z,37.17
2017-11-08T22:00:30.321Z,38.93
2017-11-08T22:02:57.942Z,41.43
2017-11-08T22:05:25.518Z,39.30
2017-11-08T22:07:53.858Z,40.37
2017-11-08T22:10:22.222Z,37.45
2017-11-08T22:12:49.793Z,38.95
2017-11-08T22:15:18.465Z,39.00
2017-11-08T22:17:46.802Z,39.27
2017-11-08T22:20:15.632Z,38.10
2017-11-08T22:22:43.200Z,37.67
2017-11-08T22:25:10.793Z,36.97
2017-11-08T22:27:38.370Z,37.37
2017-11-08T22:30:05.984Z,37.80
2017-11-08T22:32:33.549Z,38.10
2017-11-08T22:35:02.733Z,38.27
2017-11-08T22:37:31.114Z,39.93
2017-11-08T22:39:58.885Z,38.37
2017-11-08T22:42:26.456Z,38.40
2017-11-08T22:44:54.794Z,41.57
2017-11-08T22:47:22.394Z,38.47
2017-11-08T22:49:50.733Z,37.73
2017-11-08T22:52:18.341Z,38.15
2017-11-08T22:54:46.681Z,40.27
2017-11-08T22:57:16.702Z,38.40
2017-11-08T22:59:44.309Z,40.27
2017-11-08T23:02:11.952Z,38.28
2017-11-08T23:04:40.309Z,41.70
2017-11-08T23:07:07.986Z,40.72
2017-11-08T23:09:35.832Z,40.40
2017-11-08T23:12:03.409Z,41.43
2017-11-08T23:14:31.003Z,39.23
2017-11-08T23:16:58.585Z,38.73
2017-11-08T23:19:26.180Z,39.30
2017-11-08T23:21:53.745Z,39.20
2017-11-08T23:24:21.356Z,39.92
2017-11-08T23:26:48.929Z,35.58
2017-11-08T23:29:18.086Z,40.90
2017-11-08T23:31:46.417Z,40.13
2017-11-08T23:34:16.453Z,39.95
2017-11-08T23:36:44.049Z,40.60
2017-11-08T23:39:12.413Z,43.40
2017-11-08T23:41:39.986Z,41.90
2017-11-08T23:44:08.345Z,37.17
2017-11-08T23:46:35.920Z,40.63
2017-11-08T23:49:03.530Z,40.17
2017-11-08T23:51:31.097Z,39.77
2017-11-08T23:54:00.457Z,39.50
2017-11-08T23:56:31.802Z,41.03
2017-11-08T23:59:00.141Z,40.00
